createdAt,value
2023-01-19T00:04:43.973Z,-2.50
2023-01-19T00:09:45.728Z,-2.40
2023-01-19T00:14:48.974Z,-2.30
2023-01-19T00:19:50.726Z,-2.30
2023-01-19T00:24:52.406Z,-2.20
2023-01-19T00:29:55.429Z,-2.20
2023-01-19T00:34:57.201Z,-2.20
2023-01-19T00:39:59.062Z,-2.10
2023-01-19T00:45:02.177Z,-2.10
2023-01-19T00:50:04.373Z,-2.20
2023-01-19T00:55:07.813Z,-2.30
2023-01-19T01:00:13.768Z,-2.20
2023-01-19T01:05:16.280Z,-2.30
2023-01-19T01:10:20.031Z,-2.30
2023-01-19T01:15:23.226Z,-2.20
2023-01-19T01:20:27.888Z,-2.20
2023-01-19T01:25:29.930Z,-2.10
2023-01-19T01:30:32.964Z,-2.20
2023-01-19T01:35:34.746Z,-2.00
2023-01-19T01:40:39.364Z,-2.00
2023-01-19T01:45:43.182Z,-2.20
2023-01-19T01:50:47.890Z,-2.20
2023-01-19T01:55:49.777Z,-2.40
2023-01-19T02:00:53.026Z,-2.40
2023-01-19T02:05:56.493Z,-2.50
2023-01-19T02:10:58.851Z,-2.70
2023-01-19T02:16:06.096Z,-2.80
2023-01-19T02:21:12.573Z,-2.80
2023-01-19T02:26:19.120Z,-2.70
2023-01-19T02:31:20.924Z,-2.70
2023-01-19T02:36:26.348Z,-2.80
2023-01-19T02:41:34.374Z,-3.00
2023-01-19T02:46:36.511Z,-3.10
2023-01-19T02:51:38.231Z,-3.10
2023-01-19T02:56:51.406Z,-2.90
2023-01-19T03:02:17.717Z,-2.80
2023-01-19T03:13:09.927Z,-2.30
2023-01-19T03:18:14.395Z,-2.20
2023-01-19T03:23:17.195Z,-2.20
2023-01-19T03:28:23.917Z,-2.20
2023-01-19T03:33:31.482Z,-2.10
2023-01-19T03:39:08.416Z,-2.10
2023-01-19T03:44:11.827Z,-2.10
2023-01-19T03:49:13.760Z,-2.10
2023-01-19T03:54:15.696Z,-2.00
2023-01-19T03:59:18.838Z,-2.20
2023-01-19T04:04:20.586Z,-2.20
2023-01-19T04:09:22.271Z,-2.10
2023-01-19T04:14:25.591Z,-2.10
2023-01-19T04:19:27.396Z,-2.00
2023-01-19T04:24:29.217Z,-1.90
2023-01-19T04:29:32.336Z,-1.90
2023-01-19T04:34:34.163Z,-1.80
2023-01-19T04:39:36.045Z,-1.80
2023-01-19T04:44:39.320Z,-1.80
2023-01-19T04:49:41.025Z,-1.70
2023-01-19T04:54:42.704Z,-1.70
2023-01-19T04:59:45.829Z,-1.60
2023-01-19T05:04:47.510Z,-1.60
2023-01-19T05:09:49.256Z,-1.50
2023-01-19T05:14:52.364Z,-1.50
2023-01-19T05:19:54.113Z,-1.40
2023-01-19T05:24:55.865Z,-1.30
2023-01-19T05:29:59.131Z,-1.20
2023-01-19T05:35:00.896Z,-1.20
2023-01-19T05:40:02.759Z,-1.10
2023-01-19T05:45:07.147Z,-1.00
2023-01-19T05:50:09.884Z,-0.90
2023-01-19T05:55:12.175Z,-0.80
2023-01-19T06:00:16.744Z,-0.70
2023-01-19T06:05:18.347Z,-0.60
2023-01-19T06:10:20.151Z,-0.60
2023-01-19T06:15:23.342Z,-0.60
2023-01-19T06:20:25.004Z,-0.50
2023-01-19T06:25:26.804Z,-0.50
2023-01-19T06:30:32.525Z,-0.40
2023-01-19T06:36:02.396Z,-0.40
2023-01-19T06:41:04.389Z,-0.40
2023-01-19T06:46:07.630Z,-0.40
2023-01-19T06:51:09.457Z,-0.40
2023-01-19T06:56:11.274Z,-0.40
2023-01-19T07:01:14.984Z,-0.40
2023-01-19T07:06:20.019Z,-0.50
2023-01-19T07:11:29.924Z,-0.60
2023-01-19T07:16:36.275Z,-0.50
2023-01-19T07:21:37.970Z,-0.60
2023-01-19T07:26:39.737Z,-0.60
2023-01-19T07:31:42.984Z,-0.60
2023-01-19T07:36:44.827Z,-0.60
2023-01-19T07:41:48.273Z,-0.60
2023-01-19T07:46:51.387Z,-0.60
2023-01-19T07:51:53.094Z,-0.60
2023-01-19T07:56:55.032Z,-0.60
2023-01-19T08:01:58.583Z,-0.50
2023-01-19T08:07:00.353Z,-0.50
2023-01-19T08:12:02.169Z,-0.50
2023-01-19T08:17:05.405Z,-0.50
2023-01-19T08:22:07.209Z,-0.40
2023-01-19T08:27:08.950Z,-0.50
2023-01-19T08:32:12.690Z,-0.60
2023-01-19T08:37:14.487Z,-0.60
2023-01-19T08:42:17.797Z,-0.60
2023-01-19T08:47:21.080Z,-0.40
2023-01-19T08:52:22.908Z,-0.30
2023-01-19T08:57:24.744Z,-0.30
2023-01-19T09:02:28.019Z,-0.20
2023-01-19T09:07:31.518Z,-0.10
2023-01-19T09:12:35.694Z,0.10
2023-01-19T09:17:38.979Z,0.30
2023-01-19T09:22:40.793Z,0.40
2023-01-19T09:27:42.501Z,0.70
2023-01-19T09:32:45.830Z,0.80
2023-01-19T09:37:48.073Z,1.00
2023-01-19T09:42:53.338Z,1.20
2023-01-19T09:47:58.607Z,1.40
2023-01-19T09:53:05.660Z,1.60
2023-01-19T09:58:12.192Z,1.70
2023-01-19T10:03:17.100Z,1.80
2023-01-19T10:08:26.466Z,2.00
2023-01-19T10:13:35.864Z,2.00
2023-01-19T10:18:44.245Z,2.10
2023-01-19T10:23:50.395Z,2.20
2023-01-19T10:28:55.710Z,2.20
2023-01-19T10:33:58.889Z,2.20
2023-01-19T10:39:00.660Z,2.30
2023-01-19T10:44:04.359Z,2.50
2023-01-19T10:49:20.208Z,2.70
2023-01-19T10:54:22.671Z,2.60
2023-01-19T10:59:34.196Z,2.50
2023-01-19T11:04:37.882Z,2.40
2023-01-19T11:09:39.610Z,2.20
2023-01-19T11:14:41.534Z,2.10
2023-01-19T11:19:54.653Z,1.90
2023-01-19T11:25:01.456Z,1.90
2023-01-19T11:30:14.926Z,1.90
2023-01-19T11:42:02.131Z,1.80
2023-01-19T11:47:12.092Z,1.80
2023-01-19T11:52:38.672Z,1.90
2023-01-19T11:58:19.314Z,1.90
2023-01-19T12:03:25.397Z,1.90
2023-01-19T12:08:34.269Z,1.90
2023-01-19T12:13:36.838Z,1.90
2023-01-19T12:18:42.270Z,2.00
2023-01-19T12:23:53.396Z,2.10
2023-01-19T12:28:58.068Z,2.20
2023-01-19T12:34:27.805Z,2.20
2023-01-19T12:39:32.058Z,2.20
2023-01-19T12:44:34.584Z,2.20
2023-01-19T12:49:42.356Z,2.10
2023-01-19T12:54:58.433Z,2.10
2023-01-19T13:00:04.589Z,2.30
2023-01-19T13:05:47.910Z,2.40
2023-01-19T13:11:15.335Z,2.40
2023-01-19T13:17:03.243Z,2.40
2023-01-19T13:22:51.383Z,2.40
2023-01-19T13:27:55.244Z,2.40
2023-01-19T13:33:04.366Z,2.30
2023-01-19T13:38:07.213Z,2.30
2023-01-19T13:43:17.941Z,2.20
2023-01-19T13:48:22.426Z,2.10
2023-01-19T13:53:24.117Z,2.10
2023-01-19T13:58:27.195Z,2.10
2023-01-19T14:03:29.045Z,2.10
2023-01-19T14:08:33.550Z,2.00
2023-01-19T14:13:37.061Z,2.00
2023-01-19T14:18:39.087Z,1.80
2023-01-19T14:23:44.142Z,1.80
2023-01-19T14:28:47.415Z,1.70
2023-01-19T14:33:50.742Z,1.70
2023-01-19T14:38:54.229Z,1.50
2023-01-19T14:43:58.801Z,1.40
2023-01-19T14:49:02.772Z,1.40
2023-01-19T14:54:04.894Z,1.30
2023-01-19T14:59:10.525Z,1.30
2023-01-19T15:04:12.268Z,1.20
2023-01-19T15:09:15.002Z,1.20
2023-01-19T15:14:20.283Z,1.10
2023-01-19T15:19:21.965Z,1.10
2023-01-19T15:24:26.291Z,1.10
2023-01-19T15:29:31.073Z,1.20
2023-01-19T15:34:54.647Z,1.20
2023-01-19T15:40:24.569Z,1.00
2023-01-19T15:45:36.253Z,1.00
2023-01-19T15:50:43.720Z,1.00
2023-01-19T16:01:22.220Z,0.90
2023-01-19T16:06:24.234Z,0.80
2023-01-19T16:11:29.847Z,0.70
2023-01-19T16:16:33.172Z,0.60
2023-01-19T16:21:37.429Z,0.60
2023-01-19T16:26:39.238Z,0.60
2023-01-19T16:31:43.688Z,0.50
2023-01-19T16:36:45.641Z,0.60
2023-01-19T16:41:47.441Z,0.60
2023-01-19T16:46:50.773Z,0.60
2023-01-19T16:51:53.233Z,0.60
2023-01-19T16:56:56.748Z,0.60
2023-01-19T17:02:00.106Z,0.50
2023-01-19T17:07:01.930Z,0.50
2023-01-19T17:12:04.014Z,0.50
2023-01-19T17:17:09.335Z,0.50
2023-01-19T17:22:11.189Z,0.50
2023-01-19T17:27:13.054Z,0.50
2023-01-19T17:32:20.638Z,0.60
2023-01-19T17:37:25.226Z,0.60
2023-01-19T17:42:26.950Z,0.60
2023-01-19T17:47:30.078Z,0.50
2023-01-19T17:52:32.031Z,0.60
2023-01-19T17:57:33.882Z,0.60
2023-01-19T18:02:37.557Z,0.60
2023-01-19T18:13:26.803Z,0.60
2023-01-19T18:18:30.516Z,0.60
2023-01-19T18:23:47.117Z,0.60
2023-01-19T18:28:50.828Z,0.60
2023-01-19T18:33:54.026Z,0.60
2023-01-19T18:39:01.989Z,0.50
2023-01-19T18:49:21.392Z,0.60
2023-01-19T18:54:23.200Z,0.60
2023-01-19T18:59:40.733Z,0.60
2023-01-19T19:04:46.779Z,0.50
2023-01-19T19:11:03.966Z,0.40
2023-01-19T19:16:07.288Z,0.40
2023-01-19T19:26:27.589Z,0.40
2023-01-19T19:31:29.491Z,0.40
2023-01-19T19:37:01.568Z,0.40
2023-01-19T19:42:05.492Z,0.50
2023-01-19T19:47:09.650Z,0.40
2023-01-19T19:52:11.571Z,0.30
2023-01-19T19:57:14.756Z,0.30
2023-01-19T20:02:18.086Z,0.20
2023-01-19T20:07:20.015Z,0.30
2023-01-19T20:12:23.157Z,0.30
2023-01-19T20:17:24.891Z,0.30
2023-01-19T20:22:26.592Z,0.30
2023-01-19T20:27:29.787Z,0.30
2023-01-19T20:32:31.518Z,0.30
2023-01-19T21:00:01.381Z,0.20
2023-01-19T21:10:21.870Z,-0.10
2023-01-19T21:21:06.086Z,-0.20
2023-01-19T21:26:07.843Z,-0.10
2023-01-19T21:36:50.840Z,-0.30
2023-01-19T21:42:16.713Z,-0.40
2023-01-19T22:38:21.294Z,-0.80
2023-01-19T22:43:23.029Z,-0.80
2023-01-19T22:48:24.806Z,-0.80
2023-01-19T22:53:29.933Z,-0.80
2023-01-19T22:58:31.665Z,-0.80
2023-01-19T23:03:36.859Z,-1.00
2023-01-19T23:08:40.613Z,-1.00
2023-01-19T23:13:42.942Z,-1.20
2023-01-19T23:18:45.133Z,-1.40
2023-01-19T23:23:48.429Z,-1.60
2023-01-19T23:28:54.589Z,-1.70
2023-01-19T23:33:58.133Z,-1.80
2023-01-19T23:39:03.317Z,-2.00
2023-01-19T23:44:05.278Z,-2.20
2023-01-19T23:49:06.983Z,-2.30
2023-01-19T23:54:10.068Z,-2.50
2023-01-19T23:59:13.856Z,-2.60
